createdAt,value
2018-02-21T00:01:07.533Z,63.97
2018-02-21T00:03:36.740Z,71.80
2018-02-21T00:06:06.456Z,72.13
2018-02-21T00:08:35.686Z,68.80
2018-02-21T00:11:05.923Z,78.20
2018-02-21T00:13:37.660Z,69.63
2018-02-21T00:16:06.916Z,77.57
2018-02-21T00:19:38.673Z,73.57
2018-02-21T00:22:08.556Z,66.93
2018-02-21T00:24:37.842Z,76.27
2018-02-21T00:27:07.468Z,69.27
2018-02-21T00:29:37.086Z,69.43
2018-02-21T00:32:06.349Z,73.57
2018-02-21T00:34:35.738Z,68.27
2018-02-21T00:37:05.475Z,72.50
2018-02-21T00:39:34.735Z,68.60
2018-02-21T00:42:06.331Z,71.63
2018-02-21T00:44:36.298Z,69.90
2018-02-21T00:47:05.528Z,74.30
2018-02-21T00:49:35.947Z,64.20
2018-02-21T00:52:06.400Z,63.77
2018-02-21T00:54:35.663Z,77.00
2018-02-21T00:57:06.140Z,65.50
2018-02-21T00:59:36.963Z,65.60
2018-02-21T01:02:06.233Z,70.20
2018-02-21T01:04:35.511Z,63.37
2018-02-21T01:07:06.260Z,72.10
2018-02-21T01:09:35.552Z,70.00
2018-02-21T01:12:05.732Z,67.63
2018-02-21T01:14:36.596Z,72.87
2018-02-21T01:17:06.284Z,76.50
2018-02-21T01:19:35.626Z,83.43
2018-02-21T01:22:06.588Z,85.73
2018-02-21T01:24:35.889Z,75.03
2018-02-21T01:27:05.152Z,80.23
2018-02-21T01:29:35.765Z,84.60
2018-02-21T01:32:05.668Z,90.93
2018-02-21T01:34:35.014Z,84.10
2018-02-21T01:37:05.627Z,79.97
2018-02-21T01:39:49.271Z,82.23
2018-02-21T01:42:18.958Z,79.27
2018-02-21T01:44:48.211Z,84.87
2018-02-21T01:47:17.461Z,82.90
2018-02-21T01:49:47.028Z,87.67
2018-02-21T01:52:16.324Z,81.90
2018-02-21T01:54:45.587Z,81.67
2018-02-21T01:57:15.376Z,85.13
2018-02-21T01:59:44.634Z,79.77
2018-02-21T02:02:14.069Z,81.20
2018-02-21T02:04:43.915Z,92.70
2018-02-21T02:07:13.155Z,89.27
2018-02-21T02:09:42.420Z,90.73
2018-02-21T02:12:12.089Z,92.90
2018-02-21T02:14:41.331Z,87.90
2018-02-21T02:17:10.550Z,92.63
2018-02-21T02:19:40.169Z,88.33
2018-02-21T02:22:09.427Z,89.13
2018-02-21T02:24:38.712Z,96.40
2018-02-21T02:27:08.275Z,97.70
2018-02-21T02:29:37.538Z,98.10
2018-02-21T02:32:06.781Z,105.83
2018-02-21T02:34:36.526Z,103.67
2018-02-21T02:37:05.762Z,116.17
2018-02-21T02:40:03.143Z,111.93
2018-02-21T02:42:32.783Z,108.07
2018-02-21T02:45:02.466Z,119.63
2018-02-21T02:47:32.087Z,109.93
2018-02-21T02:50:01.503Z,121.27
2018-02-21T02:52:30.781Z,114.17
2018-02-21T02:55:00.539Z,123.23
2018-02-21T02:57:29.842Z,110.53
2018-02-21T02:59:59.055Z,113.03
2018-02-21T03:02:28.858Z,110.67
2018-02-21T03:04:58.275Z,115.20
2018-02-21T03:07:27.551Z,117.43
2018-02-21T03:09:57.335Z,121.00
2018-02-21T03:12:26.687Z,126.33
2018-02-21T03:14:55.939Z,117.83
2018-02-21T03:17:25.538Z,118.57
2018-02-21T03:19:54.788Z,121.53
2018-02-21T03:22:24.220Z,122.30
2018-02-21T03:24:53.998Z,119.50
2018-02-21T03:27:24.513Z,131.63
2018-02-21T03:29:53.779Z,119.20
2018-02-21T03:32:23.336Z,128.43
2018-02-21T03:34:52.570Z,127.77
2018-02-21T03:37:21.905Z,127.57
2018-02-21T03:39:51.579Z,119.07
2018-02-21T03:42:21.037Z,131.77
2018-02-21T03:44:50.350Z,119.73
2018-02-21T03:47:20.127Z,124.93
2018-02-21T03:49:49.416Z,116.23
2018-02-21T03:52:18.708Z,130.63
2018-02-21T03:54:48.065Z,124.10
2018-02-21T03:57:17.354Z,126.17
2018-02-21T03:59:49.058Z,127.70
2018-02-21T04:02:18.320Z,137.47
2018-02-21T04:04:47.578Z,120.30
2018-02-21T04:07:17.171Z,130.57
2018-02-21T04:09:46.447Z,148.80
2018-02-21T04:12:15.727Z,136.57
2018-02-21T04:16:14.661Z,126.43
2018-02-21T04:18:43.912Z,134.43
2018-02-21T04:21:13.568Z,144.87
2018-02-21T04:23:42.776Z,134.37
2018-02-21T04:26:12.008Z,130.13
2018-02-21T04:28:41.724Z,135.43
2018-02-21T04:31:10.962Z,130.57
2018-02-21T04:33:40.302Z,127.27
2018-02-21T04:36:09.947Z,128.50
2018-02-21T04:38:39.195Z,127.77
2018-02-21T04:41:08.518Z,126.60
2018-02-21T04:43:39.257Z,123.23
2018-02-21T04:46:08.555Z,134.70
2018-02-21T04:48:37.801Z,137.30
2018-02-21T04:51:07.478Z,134.90
2018-02-21T04:53:36.827Z,120.07
2018-02-21T04:56:07.148Z,134.00
2018-02-21T04:58:38.297Z,130.00
2018-02-21T05:01:07.734Z,132.70
2018-02-21T05:03:37.009Z,135.53
2018-02-21T05:06:07.578Z,137.53
2018-02-21T05:08:36.837Z,136.27
2018-02-21T05:11:06.095Z,144.93
2018-02-21T05:13:39.742Z,132.70
2018-02-21T05:16:09.134Z,129.73
2018-02-21T05:18:38.379Z,130.87
2018-02-21T05:21:09.102Z,133.63
2018-02-21T05:23:38.363Z,134.63
2018-02-21T05:26:07.628Z,128.07
2018-02-21T05:28:37.310Z,136.50
2018-02-21T05:31:06.596Z,137.03
2018-02-21T05:33:35.833Z,128.90
2018-02-21T05:36:06.561Z,135.37
2018-02-21T05:38:35.845Z,143.50
2018-02-21T05:41:05.278Z,147.97
2018-02-21T05:43:34.961Z,136.83
2018-02-21T05:46:05.376Z,152.00
2018-02-21T05:48:34.658Z,145.83
2018-02-21T05:51:04.488Z,136.53
2018-02-21T05:53:34.736Z,155.30
2018-02-21T05:56:04.727Z,147.30
2018-02-21T05:58:34.578Z,154.03
2018-02-21T06:01:04.930Z,144.90
2018-02-21T06:03:34.249Z,150.20
2018-02-21T06:06:04.639Z,151.83
2018-02-21T06:08:33.866Z,139.60
2018-02-21T06:11:03.392Z,135.63
2018-02-21T06:13:33.083Z,153.07
2018-02-21T06:16:03.050Z,140.83
2018-02-21T06:18:32.393Z,152.37
2018-02-21T06:21:02.431Z,144.37
2018-02-21T06:23:31.679Z,138.37
2018-02-21T06:26:00.911Z,147.03
2018-02-21T06:28:30.815Z,158.77
2018-02-21T06:31:00.112Z,164.90
2018-02-21T06:33:29.380Z,153.70
2018-02-21T06:38:27.003Z,161.67
2018-02-21T06:40:56.516Z,142.03
2018-02-21T06:43:26.642Z,153.13
2018-02-21T06:45:55.909Z,166.23
2018-02-21T06:48:25.237Z,161.23
2018-02-21T06:50:54.842Z,158.33
2018-02-21T06:53:24.116Z,165.17
2018-02-21T06:55:53.496Z,150.07
2018-02-21T06:58:23.237Z,159.60
2018-02-21T07:00:52.562Z,175.40
2018-02-21T07:03:21.959Z,163.30
2018-02-21T07:05:52.500Z,167.27
2018-02-21T07:08:22.006Z,182.70
2018-02-21T07:10:51.594Z,166.70
2018-02-21T07:13:21.997Z,156.40
2018-02-21T07:15:50.048Z,162.17
2018-02-21T07:18:19.357Z,166.33
2018-02-21T07:20:49.189Z,157.90
2018-02-21T07:23:18.583Z,169.77
2018-02-21T07:25:49.627Z,161.10
2018-02-21T07:28:19.810Z,145.70
2018-02-21T07:30:49.063Z,164.17
2018-02-21T07:33:18.376Z,157.60
2018-02-21T07:35:48.851Z,153.97
2018-02-21T07:38:18.097Z,169.83
2018-02-21T07:40:47.358Z,151.83
2018-02-21T07:43:17.004Z,162.03
2018-02-21T07:45:46.343Z,153.53
2018-02-21T07:48:15.675Z,154.77
2018-02-21T07:50:45.400Z,164.10
2018-02-21T07:53:23.065Z,147.77
2018-02-21T07:55:58.483Z,151.50
2018-02-21T07:58:30.704Z,147.73
2018-02-21T08:01:00.600Z,153.73
2018-02-21T08:03:29.864Z,135.30
2018-02-21T08:05:59.246Z,156.50
2018-02-21T08:08:28.918Z,148.27
2018-02-21T08:10:58.169Z,134.37
2018-02-21T08:13:27.447Z,144.60
2018-02-21T08:15:57.130Z,149.10
2018-02-21T08:18:26.882Z,147.70
2018-02-21T08:20:56.168Z,142.63
2018-02-21T08:23:25.986Z,141.73
2018-02-21T08:25:55.308Z,134.33
2018-02-21T08:28:24.595Z,140.60
2018-02-21T08:30:54.284Z,147.90
2018-02-21T08:33:23.563Z,138.53
2018-02-21T08:35:52.810Z,146.10
2018-02-21T08:38:22.620Z,146.90
2018-02-21T08:40:52.396Z,142.50
2018-02-21T08:43:22.671Z,143.77
2018-02-21T08:45:52.378Z,136.60
2018-02-21T08:48:21.724Z,151.70
2018-02-21T08:50:51.007Z,142.93
2018-02-21T08:53:20.731Z,133.70
2018-02-21T08:55:50.019Z,144.70
2018-02-21T08:58:19.420Z,150.43
2018-02-21T09:00:49.071Z,140.40
2018-02-21T09:03:18.354Z,130.77
2018-02-21T09:05:47.651Z,125.73
2018-02-21T09:08:17.421Z,149.93
2018-02-21T09:10:46.702Z,132.53
2018-02-21T09:13:16.060Z,127.77
2018-02-21T09:15:45.607Z,138.37
2018-02-21T09:18:14.870Z,145.93
2018-02-21T09:20:44.209Z,126.33
2018-02-21T09:23:13.895Z,122.13
2018-02-21T09:25:44.185Z,131.03
2018-02-21T09:28:13.533Z,116.50
2018-02-21T09:30:43.755Z,124.07
2018-02-21T09:33:13.182Z,168.90
2018-02-21T09:35:43.092Z,126.23
2018-02-21T09:38:12.514Z,119.97
2018-02-21T09:40:41.998Z,122.40
2018-02-21T09:43:11.938Z,108.70
2018-02-21T09:45:41.216Z,130.17
2018-02-21T09:48:10.514Z,121.50
2018-02-21T09:50:40.071Z,110.93
2018-02-21T09:53:09.314Z,111.13
2018-02-21T09:55:38.595Z,117.00
2018-02-21T09:58:08.533Z,110.30
2018-02-21T10:00:38.344Z,104.47
2018-02-21T10:03:08.406Z,116.13
2018-02-21T10:05:37.997Z,102.47
2018-02-21T10:08:07.324Z,103.30
2018-02-21T10:10:42.520Z,105.37
2018-02-21T10:13:18.227Z,104.47
2018-02-21T10:15:48.076Z,87.27
2018-02-21T10:18:17.943Z,92.20
2018-02-21T10:20:47.348Z,103.57
2018-02-21T10:23:16.677Z,112.97
2018-02-21T10:25:46.342Z,101.30
2018-02-21T10:28:15.978Z,91.43
2018-02-21T10:30:45.353Z,96.30
2018-02-21T10:33:16.141Z,92.03
2018-02-21T10:35:47.012Z,80.70
2018-02-21T10:38:16.389Z,80.53
2018-02-21T10:40:46.112Z,79.57
2018-02-21T10:43:15.503Z,77.07
2018-02-21T10:45:44.900Z,75.93
2018-02-21T10:48:14.542Z,81.20
2018-02-21T10:50:43.807Z,76.80
2018-02-21T10:55:42.872Z,75.17
2018-02-21T10:58:13.168Z,79.27
2018-02-21T11:00:47.082Z,82.57
2018-02-21T11:03:17.315Z,73.90
2018-02-21T11:05:47.635Z,94.73
2018-02-21T11:08:17.227Z,83.27
2018-02-21T11:10:48.588Z,77.73
2018-02-21T11:13:18.335Z,78.27
2018-02-21T11:15:47.645Z,80.57
2018-02-21T11:18:17.556Z,75.50
2018-02-21T11:20:47.335Z,73.40
2018-02-21T11:23:16.608Z,69.97
2018-02-21T11:25:45.868Z,78.93
2018-02-21T11:28:16.299Z,79.53
2018-02-21T11:31:17.674Z,78.83
2018-02-21T11:33:48.118Z,78.83
2018-02-21T11:36:17.682Z,79.47
2018-02-21T11:38:47.432Z,82.97
2018-02-21T11:41:17.114Z,71.10
2018-02-21T11:43:46.403Z,76.40
2018-02-21T11:46:15.662Z,75.90
2018-02-21T11:48:45.247Z,71.17
2018-02-21T11:51:14.551Z,71.60
2018-02-21T11:53:43.815Z,67.30
2018-02-21T11:56:13.642Z,66.80
2018-02-21T11:58:42.963Z,65.13
2018-02-21T12:01:12.219Z,65.53
2018-02-21T12:03:41.472Z,62.33
2018-02-21T12:06:10.760Z,69.27
2018-02-21T12:08:40.034Z,73.67
2018-02-21T12:11:10.735Z,64.33
2018-02-21T12:13:40.718Z,68.20
2018-02-21T12:16:09.991Z,74.17
2018-02-21T12:18:39.251Z,71.50
2018-02-21T12:21:08.596Z,65.10
2018-02-21T12:23:38.204Z,69.90
2018-02-21T12:26:07.438Z,66.43
2018-02-21T12:28:36.724Z,63.50
2018-02-21T12:31:06.345Z,63.53
2018-02-21T12:33:35.587Z,65.20
2018-02-21T12:36:06.935Z,66.10
2018-02-21T12:38:37.508Z,69.13
2018-02-21T12:41:11.485Z,71.47
2018-02-21T12:43:40.850Z,65.23
2018-02-21T12:46:10.091Z,70.37
2018-02-21T12:48:39.342Z,58.63
2018-02-21T12:51:08.934Z,64.03
2018-02-21T12:53:38.860Z,74.87
2018-02-21T12:56:08.131Z,67.53
2018-02-21T12:58:37.767Z,66.60
2018-02-21T13:01:07.058Z,66.30
2018-02-21T13:03:36.256Z,72.73
2018-02-21T13:06:06.335Z,65.40
2018-02-21T13:08:36.727Z,71.30
2018-02-21T13:11:06.068Z,69.93
2018-02-21T13:13:36.820Z,63.77
2018-02-21T13:16:06.117Z,63.70
2018-02-21T13:18:35.345Z,59.03
2018-02-21T13:21:05.126Z,59.83
2018-02-21T13:23:34.640Z,63.93
2018-02-21T13:26:06.367Z,62.90
2018-02-21T13:28:35.678Z,55.07
2018-02-21T13:31:05.055Z,62.83
2018-02-21T13:33:34.709Z,57.60
2018-02-21T13:36:04.802Z,62.93
2018-02-21T13:38:34.171Z,53.97
2018-02-21T13:41:04.280Z,58.87
2018-02-21T13:43:34.073Z,57.23
2018-02-21T13:46:04.454Z,64.43
2018-02-21T13:48:33.984Z,57.50
2018-02-21T13:51:04.459Z,63.13
2018-02-21T13:53:33.726Z,60.80
2018-02-21T13:56:04.512Z,69.60
2018-02-21T13:58:33.787Z,59.27
2018-02-21T14:01:03.292Z,66.30
2018-02-21T14:03:32.894Z,55.90
2018-02-21T14:06:02.858Z,62.00
2018-02-21T14:08:34.022Z,58.00
2018-02-21T14:11:03.840Z,64.73
2018-02-21T14:13:33.147Z,53.50
2018-02-21T14:16:03.687Z,112.90
2018-02-21T14:18:32.964Z,63.23
2018-02-21T14:21:02.444Z,59.83
2018-02-21T14:23:33.184Z,60.57
2018-02-21T14:26:04.486Z,62.33
2018-02-21T14:28:33.764Z,55.50
2018-02-21T14:31:03.642Z,55.93
2018-02-21T14:33:32.973Z,50.53
2018-02-21T14:36:04.167Z,49.90
2018-02-21T14:38:33.481Z,57.03
2018-02-21T14:41:03.118Z,56.87
2018-02-21T14:43:33.424Z,54.67
2018-02-21T14:46:03.875Z,54.63
2018-02-21T14:48:34.472Z,49.77
2018-02-21T14:51:04.479Z,56.27
2018-02-21T14:53:33.746Z,54.80
2018-02-21T14:56:03.820Z,53.70
2018-02-21T14:58:33.403Z,45.00
2018-02-21T15:01:02.895Z,50.10
2018-02-21T15:03:32.159Z,57.90
2018-02-21T15:06:03.807Z,52.53
2018-02-21T15:08:33.086Z,48.43
2018-02-21T15:11:02.621Z,56.37
2018-02-21T15:13:33.439Z,45.37
2018-02-21T15:16:03.766Z,56.03
2018-02-21T15:18:33.366Z,44.07
2018-02-21T15:21:03.205Z,45.43
2018-02-21T15:23:32.513Z,55.97
2018-02-21T15:26:04.039Z,49.00
2018-02-21T15:31:33.423Z,47.30
2018-02-21T15:34:03.664Z,47.10
2018-02-21T15:36:32.982Z,47.30
2018-02-21T15:39:02.604Z,50.50
2018-02-21T15:41:31.843Z,57.40
2018-02-21T15:44:01.991Z,47.80
2018-02-21T15:46:32.524Z,46.43
2018-02-21T15:49:02.006Z,46.00
2018-02-21T15:51:32.321Z,44.97
2018-02-21T15:54:03.939Z,45.53
2018-02-21T15:56:34.377Z,49.23
2018-02-21T15:59:04.839Z,45.40
2018-02-21T16:01:34.413Z,50.63
2018-02-21T16:04:04.506Z,55.10
2018-02-21T16:06:33.756Z,47.60
2018-02-21T16:09:03.761Z,43.47
2018-02-21T16:11:33.050Z,49.90
2018-02-21T16:14:04.148Z,55.03
2018-02-21T16:16:35.016Z,46.70
2018-02-21T16:19:04.423Z,53.10
2018-02-21T16:21:34.679Z,49.37
2018-02-21T16:24:05.116Z,51.13
2018-02-21T16:26:34.580Z,55.70
2018-02-21T16:29:03.989Z,49.73
2018-02-21T16:31:33.295Z,51.47
2018-02-21T16:34:03.516Z,51.50
2018-02-21T16:36:33.225Z,68.00
2018-02-21T16:39:02.705Z,48.37
2018-02-21T16:41:32.022Z,53.03
2018-02-21T16:44:03.789Z,52.07
2018-02-21T16:46:33.139Z,50.80
2018-02-21T16:49:02.625Z,51.67
2018-02-21T16:51:33.558Z,50.00
2018-02-21T16:54:07.081Z,54.20
2018-02-21T16:56:36.830Z,44.70
2018-02-21T17:02:09.243Z,51.50
2018-02-21T17:04:39.709Z,53.30
2018-02-21T17:07:09.282Z,48.23
2018-02-21T17:09:38.882Z,45.63
2018-02-21T17:12:09.103Z,47.43
2018-02-21T17:14:38.779Z,49.00
2018-02-21T17:17:08.107Z,54.43
2018-02-21T17:19:37.621Z,49.43
2018-02-21T17:22:07.280Z,48.33
2018-02-21T17:24:36.556Z,54.63
2018-02-21T17:27:05.816Z,69.53
2018-02-21T17:29:35.473Z,47.27
2018-02-21T17:32:05.383Z,53.90
2018-02-21T17:34:34.662Z,62.37
2018-02-21T17:37:04.550Z,48.17
2018-02-21T17:39:33.810Z,52.87
2018-02-21T17:42:05.018Z,49.20
2018-02-21T17:44:34.567Z,53.13
2018-02-21T17:47:04.191Z,49.77
2018-02-21T17:49:33.429Z,55.47
2018-02-21T17:52:05.129Z,48.10
2018-02-21T17:54:34.407Z,48.93
2018-02-21T17:57:04.031Z,57.80
2018-02-21T17:59:33.629Z,48.23
2018-02-21T18:02:06.680Z,57.93
2018-02-21T18:04:36.381Z,48.57
2018-02-21T18:07:06.149Z,47.90
2018-02-21T18:09:35.480Z,48.40
2018-02-21T18:12:05.689Z,54.40
2018-02-21T18:14:38.786Z,56.10
2018-02-21T18:17:08.362Z,56.97
2018-02-21T18:19:37.839Z,48.70
2018-02-21T18:22:07.421Z,48.57
2018-02-21T18:27:18.585Z,55.50
2018-02-21T18:29:48.483Z,55.07
2018-02-21T18:32:19.491Z,58.47
2018-02-21T18:34:49.422Z,61.20
2018-02-21T18:37:18.711Z,49.93
2018-02-21T18:39:48.018Z,55.17
2018-02-21T18:42:17.026Z,51.13
2018-02-21T18:44:46.943Z,54.50
2018-02-21T18:47:16.198Z,53.80
2018-02-21T18:49:45.909Z,56.40
2018-02-21T18:52:16.808Z,49.13
2018-02-21T18:54:46.076Z,138.23
2018-02-21T18:57:15.598Z,55.70
2018-02-21T18:59:44.919Z,51.10
2018-02-21T19:02:14.182Z,56.40
2018-02-21T19:04:44.296Z,50.73
2018-02-21T19:07:13.610Z,61.60
2018-02-21T19:09:42.355Z,66.90
2018-02-21T19:12:11.573Z,56.40
2018-02-21T19:14:41.267Z,59.23
2018-02-21T19:17:10.353Z,63.43
2018-02-21T19:19:40.093Z,58.37
2018-02-21T19:22:09.396Z,62.53
2018-02-21T19:24:38.717Z,60.60
2018-02-21T19:27:08.390Z,67.33
2018-02-21T19:29:37.853Z,60.33
2018-02-21T19:32:07.162Z,57.30
2018-02-21T19:34:37.001Z,57.80
2018-02-21T19:37:06.255Z,61.87
2018-02-21T19:39:35.490Z,51.93
2018-02-21T19:42:05.610Z,66.67
2018-02-21T19:44:34.835Z,53.20
2018-02-21T19:47:04.266Z,58.13
2018-02-21T19:49:33.927Z,56.73
2018-02-21T19:52:06.815Z,50.30
2018-02-21T19:54:36.103Z,54.40
2018-02-21T19:57:05.712Z,60.23
2018-02-21T19:59:34.993Z,57.90
2018-02-21T20:02:05.503Z,57.13
2018-02-21T20:04:35.306Z,64.37
2018-02-21T20:07:04.773Z,56.27
2018-02-21T20:09:34.062Z,54.33
2018-02-21T20:12:04.054Z,62.80
2018-02-21T20:14:33.390Z,58.00
2018-02-21T20:17:05.083Z,61.00
2018-02-21T20:19:34.385Z,68.83
2018-02-21T20:22:04.845Z,58.80
2018-02-21T20:24:34.505Z,58.13
2018-02-21T20:27:03.988Z,60.53
2018-02-21T20:29:33.221Z,62.10
2018-02-21T20:32:04.027Z,61.03
2018-02-21T20:34:33.279Z,63.77
2018-02-21T20:37:03.684Z,62.43
2018-02-21T20:39:33.463Z,60.27
2018-02-21T20:42:03.683Z,64.80
2018-02-21T20:44:32.915Z,66.83
2018-02-21T20:47:02.517Z,66.40
2018-02-21T20:49:31.789Z,60.90
2018-02-21T20:52:01.377Z,56.77
2018-02-21T20:54:30.957Z,70.80
2018-02-21T20:57:00.227Z,76.57
2018-02-21T20:59:59.683Z,70.43
2018-02-21T21:02:29.924Z,65.10
2018-02-21T21:04:59.221Z,72.33
2018-02-21T21:07:28.483Z,67.17
2018-02-21T21:09:58.023Z,69.87
2018-02-21T21:12:27.274Z,68.60
2018-02-21T21:14:56.488Z,68.40
2018-02-21T21:17:26.141Z,69.60
2018-02-21T21:19:55.376Z,68.07
2018-02-21T21:22:24.613Z,66.97
2018-02-21T21:24:53.906Z,74.13
2018-02-21T21:27:23.146Z,66.47
2018-02-21T21:29:52.570Z,67.73
2018-02-21T21:32:22.809Z,72.60
2018-02-21T21:34:52.512Z,65.70
2018-02-21T21:37:22.348Z,73.00
2018-02-21T21:39:52.243Z,60.37
2018-02-21T21:42:21.945Z,59.53
2018-02-21T21:44:52.326Z,65.83
2018-02-21T21:47:22.175Z,69.27
2018-02-21T21:49:51.727Z,68.97
2018-02-21T21:52:21.735Z,62.80
2018-02-21T21:54:52.135Z,64.47
2018-02-21T21:57:22.758Z,61.50
2018-02-21T22:05:07.034Z,62.47
2018-02-21T22:07:37.476Z,60.80
2018-02-21T22:10:07.907Z,69.03
2018-02-21T22:12:38.152Z,64.07
2018-02-21T22:15:08.156Z,61.17
2018-02-21T22:17:38.192Z,62.33
2018-02-21T22:20:07.540Z,63.87
2018-02-21T22:22:37.631Z,58.53
2018-02-21T22:25:07.478Z,63.50
2018-02-21T22:27:37.189Z,56.90
2018-02-21T22:30:06.487Z,63.43
2018-02-21T22:32:36.083Z,59.70
2018-02-21T22:35:05.402Z,74.30
2018-02-21T22:37:34.781Z,60.70
2018-02-21T22:40:04.693Z,61.93
2018-02-21T22:42:34.009Z,65.33
2018-02-21T22:45:03.781Z,64.67
2018-02-21T22:47:33.385Z,60.87
2018-02-21T22:50:03.499Z,70.00
2018-02-21T22:55:15.905Z,54.47
2018-02-21T22:57:45.228Z,55.50
2018-02-21T23:00:15.685Z,61.73
2018-02-21T23:02:45.025Z,60.83
2018-02-21T23:05:14.320Z,59.40
2018-02-21T23:07:44.237Z,57.60
2018-02-21T23:10:13.515Z,61.13
2018-02-21T23:12:42.993Z,56.00
2018-02-21T23:15:12.536Z,59.33
2018-02-21T23:17:42.016Z,64.73
2018-02-21T23:20:11.244Z,57.73
2018-02-21T23:22:40.859Z,58.00
2018-02-21T23:25:10.075Z,57.30
2018-02-21T23:27:39.423Z,54.37
2018-02-21T23:30:09.075Z,57.13
2018-02-21T23:32:38.505Z,59.80
2018-02-21T23:35:08.046Z,60.03
2018-02-21T23:37:38.667Z,56.03
2018-02-21T23:40:08.338Z,60.07
2018-02-21T23:42:37.620Z,59.10
2018-02-21T23:45:07.287Z,58.03
2018-02-21T23:47:37.514Z,61.03
2018-02-21T23:50:07.465Z,61.17
2018-02-21T23:52:37.171Z,57.70
2018-02-21T23:55:06.511Z,59.00
2018-02-21T23:57:35.806Z,64.80
